Terminal Aerodrome Forecast
Issued by NWS

Home | Current Version | Previous Version | Graphics & Text | Print | Product List | Glossary On
Versions: 1 2 3 4 5 6 7 8 9 10 11 12 13 14 15
052
FTUS45 KGGW 202320
TAFSDY
TAF
KSDY 202320Z 2100/2124 34009KT P6SM SCT110
     FM210200 34005KT P6SM VCSH SCT090 BKN110
     FM210500 34005KT P6SM SCT090
     FM211800 27006KT P6SM FEW090=

USA.gov is the U.S. government's official web portal to all federal, state and local government web resources and services.